sensor_id;sensor_type;location;lat;lon;timestamp;pressure;altitude;pressure_sealevel;temperature;humidity
25759;BME280;13604;52.496;13.456;2022-07-31T00:02:06;101324.28;;;16.66;100.00
25759;BME280;13604;52.496;13.456;2022-07-31T00:04:32;101319.34;;;16.62;100.00
25759;BME280;13604;52.496;13.456;2022-07-31T00:06:57;101325.53;;;16.61;100.00
25759;BME280;13604;52.496;13.456;2022-07-31T00:09:22;101325.06;;;16.56;100.00
25759;BME280;13604;52.496;13.456;2022-07-31T00:11:48;101327.19;;;16.51;100.00
25759;BME280;13604;52.496;13.456;2022-07-31T00:14:13;101330.88;;;16.48;100.00
25759;BME280;13604;52.496;13.456;2022-07-31T00:16:38;101315.47;;;16.32;100.00
25759;BME280;13604;52.496;13.456;2022-07-31T00:19:03;101324.06;;;16.34;100.00
25759;BME280;13604;52.496;13.456;2022-07-31T00:21:29;101324.88;;;16.35;100.00
25759;BME280;13604;52.496;13.456;2022-07-31T00:23:54;101308.13;;;16.25;100.00
25759;BME280;13604;52.496;13.456;2022-07-31T00:26:20;101321.44;;;16.34;100.00
25759;BME280;13604;52.496;13.456;2022-07-31T00:28:45;101302.03;;;16.24;100.00
25759;BME280;13604;52.496;13.456;2022-07-31T00:31:12;101320.00;;;16.30;100.00
25759;BME280;13604;52.496;13.456;2022-07-31T00:33:37;101309.34;;;16.21;100.00
25759;BME280;13604;52.496;13.456;2022-07-31T00:36:02;101321.41;;;16.23;100.00
25759;BME280;13604;52.496;13.456;2022-07-31T00:38:28;101310.88;;;16.12;100.00
25759;BME280;13604;52.496;13.456;2022-07-31T00:40:53;101315.31;;;16.12;100.00
25759;BME280;13604;52.496;13.456;2022-07-31T00:43:18;101308.38;;;16.11;100.00
25759;BME280;13604;52.496;13.456;2022-07-31T00:45:44;101309.53;;;16.07;100.00
25759;BME280;13604;52.496;13.456;2022-07-31T00:48:09;101312.28;;;16.05;100.00
25759;BME280;13604;52.496;13.456;2022-07-31T00:50:35;101303.81;;;16.01;100.00
25759;BME280;13604;52.496;13.456;2022-07-31T00:53:01;101295.41;;;15.96;100.00
25759;BME280;13604;52.496;13.456;2022-07-31T00:55:26;101299.34;;;16.02;100.00
25759;BME280;13604;52.496;13.456;2022-07-31T00:57:51;101295.94;;;16.01;100.00
25759;BME280;13604;52.496;13.456;2022-07-31T01:00:17;101290.63;;;15.90;100.00
25759;BME280;13604;52.496;13.456;2022-07-31T01:02:43;101298.25;;;15.93;100.00
25759;BME280;13604;52.496;13.456;2022-07-31T01:05:09;101303.16;;;15.87;100.00
25759;BME280;13604;52.496;13.456;2022-07-31T01:07:34;101297.16;;;15.85;100.00
25759;BME280;13604;52.496;13.456;2022-07-31T01:10:02;101296.53;;;15.81;100.00
25759;BME280;13604;52.496;13.456;2022-07-31T01:12:46;101288.56;;;15.83;100.00
25759;BME280;13604;52.496;13.456;2022-07-31T01:15:14;101301.81;;;15.81;100.00
25759;BME280;13604;52.496;13.456;2022-07-31T01:17:41;101291.88;;;15.74;100.00
25759;BME280;13604;52.496;13.456;2022-07-31T01:20:09;101299.13;;;15.70;100.00
25759;BME280;13604;52.496;13.456;2022-07-31T01:22:55;101304.13;;;15.62;100.00
25759;BME280;13604;52.496;13.456;2022-07-31T01:30:31;101291.34;;;15.57;100.00
25759;BME280;13604;52.496;13.456;2022-07-31T01:33:02;101290.16;;;15.49;100.00
25759;BME280;13604;52.496;13.456;2022-07-31T01:35:34;101304.50;;;15.45;100.00
25759;BME280;13604;52.496;13.456;2022-07-31T01:38:05;101308.16;;;15.42;100.00
25759;BME280;13604;52.496;13.456;2022-07-31T01:40:40;101292.84;;;15.36;100.00
25759;BME280;13604;52.496;13.456;2022-07-31T01:43:11;101293.69;;;15.37;100.00
25759;BME280;13604;52.496;13.456;2022-07-31T01:45:40;101301.78;;;15.34;100.00
25759;BME280;13604;52.496;13.456;2022-07-31T01:48:12;101307.16;;;15.32;100.00
25759;BME280;13604;52.496;13.456;2022-07-31T01:50:39;101304.53;;;15.32;100.00
25759;BME280;13604;52.496;13.456;2022-07-31T01:53:06;101300.84;;;15.35;100.00
25759;BME280;13604;52.496;13.456;2022-07-31T01:55:33;101310.91;;;15.41;100.00
25759;BME280;13604;52.496;13.456;2022-07-31T01:57:59;101292.63;;;15.39;100.00
25759;BME280;13604;52.496;13.456;2022-07-31T02:00:25;101299.06;;;15.35;100.00
25759;BME280;13604;52.496;13.456;2022-07-31T02:02:50;101292.25;;;15.33;100.00
25759;BME280;13604;52.496;13.456;2022-07-31T02:05:17;101292.66;;;15.26;100.00
25759;BME280;13604;52.496;13.456;2022-07-31T02:07:44;101306.72;;;15.25;100.00
25759;BME280;13604;52.496;13.456;2022-07-31T02:10:13;101306.31;;;15.32;100.00
25759;BME280;13604;52.496;13.456;2022-07-31T02:12:39;101298.66;;;15.28;100.00
25759;BME280;13604;52.496;13.456;2022-07-31T02:15:06;101295.91;;;15.30;100.00
25759;BME280;13604;52.496;13.456;2022-07-31T02:17:33;101296.75;;;15.30;100.00
25759;BME280;13604;52.496;13.456;2022-07-31T02:20:01;101296.97;;;15.27;100.00
25759;BME280;13604;52.496;13.456;2022-07-31T02:22:27;101291.72;;;15.27;100.00
25759;BME280;13604;52.496;13.456;2022-07-31T02:24:53;101290.78;;;15.28;100.00
25759;BME280;13604;52.496;13.456;2022-07-31T02:27:19;101295.28;;;15.26;100.00
25759;BME280;13604;52.496;13.456;2022-07-31T02:29:44;101299.59;;;15.27;100.00
25759;BME280;13604;52.496;13.456;2022-07-31T02:32:10;101300.66;;;15.25;100.00
25759;BME280;13604;52.496;13.456;2022-07-31T02:34:38;101295.22;;;15.15;100.00
25759;BME280;13604;52.496;13.456;2022-07-31T02:37:05;101300.25;;;15.18;100.00
25759;BME280;13604;52.496;13.456;2022-07-31T02:39:31;101304.47;;;15.21;100.00
25759;BME280;13604;52.496;13.456;2022-07-31T02:41:59;101292.72;;;15.14;100.00
25759;BME280;13604;52.496;13.456;2022-07-31T02:44:26;101292.59;;;15.15;100.00
25759;BME280;13604;52.496;13.456;2022-07-31T02:46:52;101297.13;;;15.13;100.00
25759;BME280;13604;52.496;13.456;2022-07-31T02:49:17;101292.94;;;15.11;100.00
25759;BME280;13604;52.496;13.456;2022-07-31T02:51:43;101290.91;;;15.14;100.00
25759;BME280;13604;52.496;13.456;2022-07-31T02:54:09;101298.59;;;15.17;100.00
25759;BME280;13604;52.496;13.456;2022-07-31T02:56:34;101293.69;;;15.13;100.00
25759;BME280;13604;52.496;13.456;2022-07-31T02:59:00;101300.09;;;15.09;100.00
25759;BME280;13604;52.496;13.456;2022-07-31T03:01:26;101300.56;;;15.14;100.00
25759;BME280;13604;52.496;13.456;2022-07-31T03:03:51;101295.22;;;15.15;100.00
25759;BME280;13604;52.496;13.456;2022-07-31T03:06:17;101292.94;;;15.11;100.00
25759;BME280;13604;52.496;13.456;2022-07-31T03:08:43;101283.59;;;15.07;100.00
25759;BME280;13604;52.496;13.456;2022-07-31T03:11:08;101279.03;;;14.98;100.00
25759;BME280;13604;52.496;13.456;2022-07-31T03:13:35;101258.91;;;14.85;100.00
25759;BME280;13604;52.496;13.456;2022-07-31T03:16:03;101282.69;;;14.95;100.00
25759;BME280;13604;52.496;13.456;2022-07-31T03:18:30;101271.47;;;14.93;100.00
25759;BME280;13604;52.496;13.456;2022-07-31T03:20:55;101281.84;;;14.94;100.00
25759;BME280;13604;52.496;13.456;2022-07-31T03:23:24;101268.44;;;14.99;100.00
25759;BME280;13604;52.496;13.456;2022-07-31T03:25:50;101267.13;;;15.05;100.00
25759;BME280;13604;52.496;13.456;2022-07-31T03:28:20;101257.00;;;15.00;100.00
25759;BME280;13604;52.496;13.456;2022-07-31T03:30:49;101254.56;;;14.97;100.00
25759;BME280;13604;52.496;13.456;2022-07-31T03:33:14;101255.31;;;14.99;100.00
25759;BME280;13604;52.496;13.456;2022-07-31T03:35:39;101259.81;;;14.97;100.00
25759;BME280;13604;52.496;13.456;2022-07-31T03:38:05;101263.19;;;14.99;100.00
25759;BME280;13604;52.496;13.456;2022-07-31T03:40:30;101251.00;;;14.98;100.00
25759;BME280;13604;52.496;13.456;2022-07-31T03:42:56;101262.84;;;15.04;100.00
25759;BME280;13604;52.496;13.456;2022-07-31T03:45:23;101257.81;;;15.01;100.00
25759;BME280;13604;52.496;13.456;2022-07-31T03:47:50;101259.38;;;15.03;100.00
25759;BME280;13604;52.496;13.456;2022-07-31T03:50:16;101265.59;;;15.02;100.00
25759;BME280;13604;52.496;13.456;2022-07-31T03:52:43;101268.91;;;15.04;100.00
25759;BME280;13604;52.496;13.456;2022-07-31T03:55:09;101267.88;;;15.07;100.00
25759;BME280;13604;52.496;13.456;2022-07-31T03:57:36;101269.66;;;15.06;100.00
25759;BME280;13604;52.496;13.456;2022-07-31T04:00:03;101266.09;;;15.07;100.00
25759;BME280;13604;52.496;13.456;2022-07-31T04:02:29;101263.56;;;15.06;100.00
25759;BME280;13604;52.496;13.456;2022-07-31T04:04:55;101276.38;;;15.10;100.00
25759;BME280;13604;52.496;13.456;2022-07-31T04:07:21;101271.84;;;15.12;100.00
25759;BME280;13604;52.496;13.456;2022-07-31T04:09:47;101282.00;;;15.17;100.00
25759;BME280;13604;52.496;13.456;2022-07-31T04:12:12;101273.41;;;15.15;100.00
25759;BME280;13604;52.496;13.456;2022-07-31T04:14:37;101269.09;;;15.14;100.00
25759;BME280;13604;52.496;13.456;2022-07-31T04:17:03;101273.41;;;15.15;100.00
25759;BME280;13604;52.496;13.456;2022-07-31T04:19:28;101271.63;;;15.15;100.00
25759;BME280;13604;52.496;13.456;2022-07-31T04:21:58;101276.44;;;15.21;100.00
25759;BME280;13604;52.496;13.456;2022-07-31T04:24:24;101274.31;;;15.26;100.00
25759;BME280;13604;52.496;13.456;2022-07-31T04:26:50;101274.09;;;15.29;100.00
25759;BME280;13604;52.496;13.456;2022-07-31T04:29:16;101283.19;;;15.37;100.00
25759;BME280;13604;52.496;13.456;2022-07-31T04:31:41;101268.28;;;15.37;100.00
25759;BME280;13604;52.496;13.456;2022-07-31T04:34:07;101284.44;;;15.44;100.00
25759;BME280;13604;52.496;13.456;2022-07-31T04:36:32;101274.31;;;15.50;100.00
25759;BME280;13604;52.496;13.456;2022-07-31T04:38:58;101287.53;;;15.61;100.00
25759;BME280;13604;52.496;13.456;2022-07-31T04:41:24;101290.78;;;15.65;100.00
25759;BME280;13604;52.496;13.456;2022-07-31T04:43:50;101276.69;;;15.66;100.00
25759;BME280;13604;52.496;13.456;2022-07-31T04:46:15;101286.28;;;15.78;100.00
25759;BME280;13604;52.496;13.456;2022-07-31T04:48:40;101285.38;;;15.90;100.00
25759;BME280;13604;52.496;13.456;2022-07-31T04:51:06;101277.75;;;15.98;100.00
25759;BME280;13604;52.496;13.456;2022-07-31T04:53:31;101289.03;;;16.12;100.00
25759;BME280;13604;52.496;13.456;2022-07-31T04:55:56;101285.91;;;16.18;100.00
25759;BME280;13604;52.496;13.456;2022-07-31T04:58:40;101278.88;;;16.29;100.00
25759;BME280;13604;52.496;13.456;2022-07-31T05:01:06;101286.56;;;16.44;100.00
25759;BME280;13604;52.496;13.456;2022-07-31T05:03:31;101287.88;;;16.49;100.00
25759;BME280;13604;52.496;13.456;2022-07-31T05:06:07;101286.47;;;16.56;100.00
25759;BME280;13604;52.496;13.456;2022-07-31T05:08:33;101284.22;;;16.63;100.00
25759;BME280;13604;52.496;13.456;2022-07-31T05:10:58;101296.03;;;16.68;100.00
25759;BME280;13604;52.496;13.456;2022-07-31T05:13:42;101296.63;;;16.72;100.00
25759;BME280;13604;52.496;13.456;2022-07-31T05:16:10;101301.28;;;16.80;100.00
25759;BME280;13604;52.496;13.456;2022-07-31T05:18:35;101297.25;;;16.87;100.00
25759;BME280;13604;52.496;13.456;2022-07-31T05:21:01;101303.91;;;16.91;100.00
25759;BME280;13604;52.496;13.456;2022-07-31T05:23:27;101291.13;;;16.86;100.00
25759;BME280;13604;52.496;13.456;2022-07-31T05:25:52;101308.94;;;16.94;100.00
25759;BME280;13604;52.496;13.456;2022-07-31T05:28:17;101301.66;;;16.97;100.00
25759;BME280;13604;52.496;13.456;2022-07-31T05:30:43;101299.75;;;16.99;100.00
25759;BME280;13604;52.496;13.456;2022-07-31T05:33:08;101294.94;;;17.04;100.00
25759;BME280;13604;52.496;13.456;2022-07-31T05:35:33;101297.56;;;17.16;100.00
25759;BME280;13604;52.496;13.456;2022-07-31T05:37:59;101283.91;;;17.22;100.00
25759;BME280;13604;52.496;13.456;2022-07-31T05:40:24;101284.22;;;17.39;100.00
25759;BME280;13604;52.496;13.456;2022-07-31T05:42:49;101280.06;;;17.58;100.00
25759;BME280;13604;52.496;13.456;2022-07-31T05:45:14;101277.91;;;17.74;100.00
25759;BME280;13604;52.496;13.456;2022-07-31T05:47:40;101273.28;;;17.87;100.00
25759;BME280;13604;52.496;13.456;2022-07-31T05:50:05;101296.50;;;18.14;100.00
25759;BME280;13604;52.496;13.456;2022-07-31T05:52:32;101290.19;;;18.26;100.00
25759;BME280;13604;52.496;13.456;2022-07-31T05:54:57;101295.00;;;18.42;100.00
25759;BME280;13604;52.496;13.456;2022-07-31T05:57:22;101296.59;;;18.54;100.00
25759;BME280;13604;52.496;13.456;2022-07-31T05:59:48;101298.22;;;18.66;100.00
25759;BME280;13604;52.496;13.456;2022-07-31T06:02:13;101312.69;;;18.81;100.00
25759;BME280;13604;52.496;13.456;2022-07-31T06:04:38;101309.13;;;18.92;100.00
25759;BME280;13604;52.496;13.456;2022-07-31T06:07:03;101312.13;;;19.08;98.65
25759;BME280;13604;52.496;13.456;2022-07-31T06:09:29;101307.94;;;19.15;98.73
25759;BME280;13604;52.496;13.456;2022-07-31T06:11:54;101306.28;;;19.24;97.93
25759;BME280;13604;52.496;13.456;2022-07-31T06:14:19;101319.13;;;19.38;96.96
25759;BME280;13604;52.496;13.456;2022-07-31T06:16:45;101305.22;;;19.46;95.92
25759;BME280;13604;52.496;13.456;2022-07-31T06:19:11;101299.44;;;19.52;95.59
25759;BME280;13604;52.496;13.456;2022-07-31T06:21:37;101301.81;;;19.65;94.88
25759;BME280;13604;52.496;13.456;2022-07-31T06:24:02;101309.44;;;19.77;94.24
25759;BME280;13604;52.496;13.456;2022-07-31T06:26:27;101305.53;;;19.91;94.22
25759;BME280;13604;52.496;13.456;2022-07-31T06:28:53;101312.34;;;20.03;93.11
25759;BME280;13604;52.496;13.456;2022-07-31T06:31:20;101306.91;;;20.14;91.44
25759;BME280;13604;52.496;13.456;2022-07-31T06:33:46;101309.81;;;20.30;91.36
25759;BME280;13604;52.496;13.456;2022-07-31T06:36:11;101308.00;;;20.41;91.10
25759;BME280;13604;52.496;13.456;2022-07-31T06:38:36;101303.53;;;20.51;91.38
25759;BME280;13604;52.496;13.456;2022-07-31T06:41:02;101306.13;;;20.60;90.30
25759;BME280;13604;52.496;13.456;2022-07-31T06:43:27;101304.00;;;20.74;90.65
25759;BME280;13604;52.496;13.456;2022-07-31T06:45:52;101299.91;;;20.79;90.35
25759;BME280;13604;52.496;13.456;2022-07-31T06:48:18;101309.34;;;20.91;89.93
25759;BME280;13604;52.496;13.456;2022-07-31T06:50:43;101296.66;;;20.95;87.86
25759;BME280;13604;52.496;13.456;2022-07-31T06:53:08;101302.72;;;21.05;86.72
25759;BME280;13604;52.496;13.456;2022-07-31T06:55:34;101291.00;;;21.07;86.82
25759;BME280;13604;52.496;13.456;2022-07-31T06:57:59;101298.78;;;21.19;87.34
25759;BME280;13604;52.496;13.456;2022-07-31T07:00:24;101295.16;;;21.20;85.64
25759;BME280;13604;52.496;13.456;2022-07-31T07:02:50;101296.75;;;21.30;86.01
25759;BME280;13604;52.496;13.456;2022-07-31T07:05:15;101299.34;;;21.40;84.87
25759;BME280;13604;52.496;13.456;2022-07-31T07:07:40;101300.03;;;21.42;81.27
25759;BME280;13604;52.496;13.456;2022-07-31T07:10:06;101302.75;;;21.50;81.14
25759;BME280;13604;52.496;13.456;2022-07-31T07:12:31;101298.34;;;21.59;79.00
25759;BME280;13604;52.496;13.456;2022-07-31T07:14:56;101294.56;;;21.61;76.29
25759;BME280;13604;52.496;13.456;2022-07-31T07:17:22;101298.66;;;21.73;78.17
25759;BME280;13604;52.496;13.456;2022-07-31T07:19:47;101289.09;;;21.80;79.66
25759;BME280;13604;52.496;13.456;2022-07-31T07:22:12;101279.25;;;21.91;78.77
25759;BME280;13604;52.496;13.456;2022-07-31T07:24:38;101286.84;;;22.03;75.77
25759;BME280;13604;52.496;13.456;2022-07-31T07:27:03;101279.25;;;22.08;77.28
25759;BME280;13604;52.496;13.456;2022-07-31T07:29:28;101289.53;;;22.11;72.34
25759;BME280;13604;52.496;13.456;2022-07-31T07:31:54;101277.09;;;22.12;70.77
25759;BME280;13604;52.496;13.456;2022-07-31T07:34:20;101275.97;;;22.14;68.98
25759;BME280;13604;52.496;13.456;2022-07-31T07:36:45;101279.50;;;22.23;67.91
25759;BME280;13604;52.496;13.456;2022-07-31T07:39:10;101275.06;;;22.32;67.31
25759;BME280;13604;52.496;13.456;2022-07-31T07:41:35;101279.28;;;22.42;67.70
25759;BME280;13604;52.496;13.456;2022-07-31T07:44:03;101273.66;;;22.45;66.76
25759;BME280;13604;52.496;13.456;2022-07-31T07:46:28;101265.22;;;22.50;65.23
25759;BME280;13604;52.496;13.456;2022-07-31T07:48:53;101257.00;;;22.61;64.74
25759;BME280;13604;52.496;13.456;2022-07-31T07:51:19;101257.22;;;22.76;62.87
25759;BME280;13604;52.496;13.456;2022-07-31T07:53:44;101261.25;;;22.88;62.39
25759;BME280;13604;52.496;13.456;2022-07-31T07:56:10;101250.19;;;23.09;63.09
25759;BME280;13604;52.496;13.456;2022-07-31T07:58:35;101262.06;;;23.31;60.16
25759;BME280;13604;52.496;13.456;2022-07-31T08:01:00;101253.81;;;23.50;59.56
25759;BME280;13604;52.496;13.456;2022-07-31T08:03:26;101257.31;;;23.75;60.27
25759;BME280;13604;52.496;13.456;2022-07-31T08:05:51;101252.94;;;24.06;59.41
25759;BME280;13604;52.496;13.456;2022-07-31T08:08:16;101256.41;;;24.39;58.02
25759;BME280;13604;52.496;13.456;2022-07-31T08:10:42;101261.09;;;24.68;57.18
25759;BME280;13604;52.496;13.456;2022-07-31T08:13:07;101248.19;;;24.96;55.31
25759;BME280;13604;52.496;13.456;2022-07-31T08:15:33;101256.69;;;25.22;55.33
25759;BME280;13604;52.496;13.456;2022-07-31T08:17:58;101237.19;;;25.67;53.74
25759;BME280;13604;52.496;13.456;2022-07-31T08:20:23;101264.16;;;25.95;53.52
25759;BME280;13604;52.496;13.456;2022-07-31T08:22:49;101239.13;;;26.26;53.01
25759;BME280;13604;52.496;13.456;2022-07-31T08:25:14;101243.13;;;26.44;50.60
25759;BME280;13604;52.496;13.456;2022-07-31T08:27:39;101246.63;;;26.60;52.95
25759;BME280;13604;52.496;13.456;2022-07-31T08:30:05;101240.97;;;26.84;50.50
25759;BME280;13604;52.496;13.456;2022-07-31T08:32:30;101240.97;;;27.20;49.63
25759;BME280;13604;52.496;13.456;2022-07-31T08:34:55;101253.75;;;27.61;47.96
25759;BME280;13604;52.496;13.456;2022-07-31T08:37:21;101248.25;;;27.69;46.04
25759;BME280;13604;52.496;13.456;2022-07-31T08:39:47;101257.47;;;27.66;46.62
25759;BME280;13604;52.496;13.456;2022-07-31T08:42:13;101248.56;;;27.80;46.93
25759;BME280;13604;52.496;13.456;2022-07-31T08:44:40;101251.19;;;28.02;44.26
25759;BME280;13604;52.496;13.456;2022-07-31T08:47:09;101256.91;;;27.99;43.55
25759;BME280;13604;52.496;13.456;2022-07-31T08:49:43;101247.31;;;28.11;43.75
25759;BME280;13604;52.496;13.456;2022-07-31T08:52:09;101243.69;;;28.18;44.09
25759;BME280;13604;52.496;13.456;2022-07-31T08:54:36;101239.81;;;28.00;43.76
25759;BME280;13604;52.496;13.456;2022-07-31T08:57:02;101237.09;;;28.21;44.83
25759;BME280;13604;52.496;13.456;2022-07-31T08:59:28;101240.13;;;28.46;44.53
25759;BME280;13604;52.496;13.456;2022-07-31T09:01:53;101233.19;;;28.58;43.52
25759;BME280;13604;52.496;13.456;2022-07-31T09:04:22;101229.25;;;29.08;41.64
25759;BME280;13604;52.496;13.456;2022-07-31T09:06:47;101237.56;;;29.33;40.18
25759;BME280;13604;52.496;13.456;2022-07-31T09:09:14;101227.88;;;29.72;40.99
25759;BME280;13604;52.496;13.456;2022-07-31T09:11:50;101230.34;;;30.06;40.81
25759;BME280;13604;52.496;13.456;2022-07-31T09:14:31;101223.78;;;30.66;39.20
25759;BME280;13604;52.496;13.456;2022-07-31T09:17:00;101224.75;;;31.17;39.00
25759;BME280;13604;52.496;13.456;2022-07-31T09:19:55;101218.97;;;31.94;35.95
25759;BME280;13604;52.496;13.456;2022-07-31T09:22:21;101215.47;;;32.12;34.15
25759;BME280;13604;52.496;13.456;2022-07-31T09:24:47;101213.84;;;32.29;34.51
25759;BME280;13604;52.496;13.456;2022-07-31T09:27:12;101204.34;;;32.45;33.04
25759;BME280;13604;52.496;13.456;2022-07-31T09:29:43;101207.38;;;32.97;32.46
25759;BME280;13604;52.496;13.456;2022-07-31T09:32:15;101207.88;;;33.47;32.36
25759;BME280;13604;52.496;13.456;2022-07-31T09:34:42;101200.16;;;33.97;31.79
25759;BME280;13604;52.496;13.456;2022-07-31T09:39:40;101204.84;;;33.02;31.23
25759;BME280;13604;52.496;13.456;2022-07-31T09:42:06;101195.50;;;32.86;32.11
25759;BME280;13604;52.496;13.456;2022-07-31T09:44:42;101185.25;;;33.18;32.12
25759;BME280;13604;52.496;13.456;2022-07-31T09:47:29;101189.31;;;33.74;30.85
25759;BME280;13604;52.496;13.456;2022-07-31T09:49:59;101187.31;;;34.04;30.81
25759;BME280;13604;52.496;13.456;2022-07-31T09:52:26;101189.81;;;34.57;29.56
25759;BME280;13604;52.496;13.456;2022-07-31T09:55:14;101186.91;;;34.36;29.09
25759;BME280;13604;52.496;13.456;2022-07-31T09:57:51;101187.28;;;34.27;28.74
25759;BME280;13604;52.496;13.456;2022-07-31T10:00:17;101173.97;;;34.38;30.13
25759;BME280;13604;52.496;13.456;2022-07-31T10:02:42;101178.97;;;33.59;28.31
25759;BME280;13604;52.496;13.456;2022-07-31T10:05:09;101183.47;;;33.53;29.74
25759;BME280;13604;52.496;13.456;2022-07-31T10:07:37;101181.09;;;33.92;29.91
25759;BME280;13604;52.496;13.456;2022-07-31T10:10:04;101170.69;;;34.92;30.21
25759;BME280;13604;52.496;13.456;2022-07-31T10:12:33;101183.31;;;35.32;27.18
25759;BME280;13604;52.496;13.456;2022-07-31T10:15:03;101174.75;;;35.73;29.05
25759;BME280;13604;52.496;13.456;2022-07-31T10:17:31;101177.59;;;36.71;26.64
25759;BME280;13604;52.496;13.456;2022-07-31T10:20:01;101175.72;;;36.71;24.68
25759;BME280;13604;52.496;13.456;2022-07-31T10:22:31;101162.84;;;37.52;24.81
25759;BME280;13604;52.496;13.456;2022-07-31T10:24:59;101166.88;;;37.87;24.70
25759;BME280;13604;52.496;13.456;2022-07-31T10:27:25;101159.16;;;38.21;24.50
25759;BME280;13604;52.496;13.456;2022-07-31T10:29:51;101161.22;;;39.17;23.49
25759;BME280;13604;52.496;13.456;2022-07-31T10:32:16;101162.50;;;39.85;22.58
25759;BME280;13604;52.496;13.456;2022-07-31T10:34:42;101147.00;;;39.60;22.07
25759;BME280;13604;52.496;13.456;2022-07-31T10:37:12;101142.53;;;39.95;22.45
25759;BME280;13604;52.496;13.456;2022-07-31T10:39:55;101148.34;;;40.37;22.04
25759;BME280;13604;52.496;13.456;2022-07-31T10:43:10;101153.88;;;40.27;19.94
25759;BME280;13604;52.496;13.456;2022-07-31T10:45:26;101150.84;;;39.29;21.45
25759;BME280;13604;52.496;13.456;2022-07-31T10:47:55;101154.16;;;39.06;22.02
25759;BME280;13604;52.496;13.456;2022-07-31T10:50:24;101149.78;;;39.30;22.55
25759;BME280;13604;52.496;13.456;2022-07-31T10:52:50;101147.19;;;39.94;21.35
25759;BME280;13604;52.496;13.456;2022-07-31T10:55:17;101144.06;;;40.16;22.08
25759;BME280;13604;52.496;13.456;2022-07-31T10:57:46;101139.28;;;41.20;20.38
25759;BME280;13604;52.496;13.456;2022-07-31T11:00:16;101133.34;;;40.35;20.60
25759;BME280;13604;52.496;13.456;2022-07-31T11:02:42;101129.47;;;40.85;20.33
25759;BME280;13604;52.496;13.456;2022-07-31T11:05:16;101138.09;;;40.58;19.82
25759;BME280;13604;52.496;13.456;2022-07-31T11:07:45;101138.19;;;41.74;19.19
25759;BME280;13604;52.496;13.456;2022-07-31T11:10:20;101142.78;;;40.53;19.55
25759;BME280;13604;52.496;13.456;2022-07-31T11:13:00;101140.53;;;37.98;22.18
25759;BME280;13604;52.496;13.456;2022-07-31T11:15:27;101135.88;;;38.86;21.52
25759;BME280;13604;52.496;13.456;2022-07-31T11:17:52;101128.38;;;39.78;21.32
25759;BME280;13604;52.496;13.456;2022-07-31T11:20:27;101131.47;;;40.25;20.20
25759;BME280;13604;52.496;13.456;2022-07-31T11:22:53;101129.50;;;39.66;21.06
25759;BME280;13604;52.496;13.456;2022-07-31T11:25:19;101132.50;;;39.85;20.46
25759;BME280;13604;52.496;13.456;2022-07-31T11:27:44;101128.44;;;40.27;19.81
25759;BME280;13604;52.496;13.456;2022-07-31T11:30:10;101122.91;;;41.15;20.16
25759;BME280;13604;52.496;13.456;2022-07-31T11:32:36;101127.69;;;39.16;21.04
25759;BME280;13604;52.496;13.456;2022-07-31T11:35:01;101122.97;;;37.68;21.95
25759;BME280;13604;52.496;13.456;2022-07-31T11:37:30;101126.44;;;36.31;24.76
25759;BME280;13604;52.496;13.456;2022-07-31T11:39:57;101124.47;;;35.83;25.57
25759;BME280;13604;52.496;13.456;2022-07-31T11:42:24;101125.34;;;34.99;25.84
25759;BME280;13604;52.496;13.456;2022-07-31T11:44:50;101115.28;;;34.66;27.74
25759;BME280;13604;52.496;13.456;2022-07-31T11:47:16;101115.34;;;34.26;27.80
25759;BME280;13604;52.496;13.456;2022-07-31T11:49:41;101118.06;;;34.72;26.82
25759;BME280;13604;52.496;13.456;2022-07-31T11:52:08;101116.03;;;35.79;25.54
25759;BME280;13604;52.496;13.456;2022-07-31T11:54:37;101115.75;;;36.02;24.69
25759;BME280;13604;52.496;13.456;2022-07-31T11:57:03;101103.59;;;37.60;24.14
25759;BME280;13604;52.496;13.456;2022-07-31T11:59:37;101101.91;;;38.01;23.01
25759;BME280;13604;52.496;13.456;2022-07-31T12:02:07;101094.19;;;39.21;21.10
25759;BME280;13604;52.496;13.456;2022-07-31T12:04:34;101097.34;;;40.67;21.43
25759;BME280;13604;52.496;13.456;2022-07-31T12:07:04;101086.72;;;41.28;19.35
25759;BME280;13604;52.496;13.456;2022-07-31T12:09:31;101085.09;;;41.94;19.05
25759;BME280;13604;52.496;13.456;2022-07-31T12:11:58;101083.63;;;43.36;17.85
25759;BME280;13604;52.496;13.456;2022-07-31T12:14:30;101088.72;;;42.83;17.71
25759;BME280;13604;52.496;13.456;2022-07-31T12:16:56;101081.69;;;43.37;17.44
25759;BME280;13604;52.496;13.456;2022-07-31T12:19:30;101073.25;;;43.74;16.96
25759;BME280;13604;52.496;13.456;2022-07-31T12:21:56;101078.66;;;42.60;17.66
25759;BME280;13604;52.496;13.456;2022-07-31T12:24:22;101073.94;;;42.09;17.57
25759;BME280;13604;52.496;13.456;2022-07-31T12:26:50;101075.16;;;39.95;19.77
25759;BME280;13604;52.496;13.456;2022-07-31T12:29:15;101075.19;;;37.30;22.27
25759;BME280;13604;52.496;13.456;2022-07-31T12:31:53;101074.31;;;34.91;25.53
25759;BME280;13604;52.496;13.456;2022-07-31T12:37:13;101076.84;;;31.28;31.21
25759;BME280;13604;52.496;13.456;2022-07-31T12:42:07;101072.16;;;29.72;35.83
25759;BME280;13604;52.496;13.456;2022-07-31T12:44:32;101075.13;;;28.91;37.87
25759;BME280;13604;52.496;13.456;2022-07-31T12:46:57;101091.53;;;28.48;38.89
25759;BME280;13604;52.496;13.456;2022-07-31T12:49:23;101081.50;;;28.16;39.77